Terminal Aerodrome Forecast
Issued by NWS Jackson, MS

Home | Current Version | Previous Version | Text Only | Print | Product List | Glossary On
Versions: 1 2 3 4 5 6 7 8 9 10 11 12 13
000
FTUS44 KJAN 070837 AAA
TAFGLH
TAF AMD
KGLH 070837Z 0709/0806 01005KT 6SM BR OVC025
     FM071100 02005KT 5SM BR OVC007
     FM071500 03006KT P6SM OVC015
     FM071900 03005KT P6SM OVC025
     FM080200 01006KT P6SM OVC050=

USA.gov is the U.S. government's official web portal to all federal, state and local government web resources and services.